Airfield :
LOGIN :

Register | Disclaimer

   EN    FR    IT 

 










Legend :    VFR   Marginal VFR   IFR   Intensive IFR   Very Intensive IFR
Visi :
Ceiling :
>= 8 km
>= 3000ft
5 to 8 km
1000 to 3000 ft
1500m to 5 km
500 to 1000 ft
800 to 1500m
200 to 500 ft
< 800m
< 200 ft
Symbols :   Thunderstorms  Fog  Heavy snow  Heavy precipitations  Wind > 20 kt
SIGMETs :     Misc.  Thunderstorms  Icing  Turbulence  Mountain Waves  Volcanic Ashes







- Airport Elevation : 290 ft
- IATA code : ACI
- Download approach charts


EGJA - Alderney

CURRENT METAR :
  • 191150Z 19016KT 9999 FEW005 BKN015 BKN028 17/16 Q1012

EXPIRED METARs :
  • 191120Z 19020KT 9999 FEW005 BKN014 17/16 Q1012
  • 191050Z 19017KT 9999 BKN014 17/16 Q1012
  • 191020Z 19018KT 9999 BKN011 16/15 Q1013
  • 190950Z 19018KT 6000 -RADZ BKN014 17/15 Q1012
  • 190920Z 19016KT 9999 FEW015 BKN023 17/15 Q1013

TAF TAF EGJA
Valid from the 19 at 12:00 until the 19 at 21:00 UTC


191103Z 1912/1921 19016KT 9999 SCT005 BKN014
TEMPO 1912/1921 5000 -DZ BKN008
PROB40
TEMPO 1912/1921 2000 DZ BKN003
PROB30
TEMPO 1919/1921 1500 RA BKN001
No reported NOTAMs for that airfield.



MET'MAP, your aeronautical weather chart ! - Copyright ORBIFLY December 2007 - Disclaimer

ORBIFLY MET'MAP TEAM :

Programming & Development : Alexandra Zaïnal
Concept & Development : Baudouin d'Aumeries
Co-Development & Prog : Marc-Olivier Méhu
Technical & hardware support : Manuel Goepfert

Contact : metmap@orbifly.com




SOURCES & CREDITS :

   NOAA